sensor_id;sensor_type;location;lat;lon;timestamp;P1;durP1;ratioP1;P2;durP2;ratioP2
28180;SDS011;15464;50.988;10.318;2023-02-05T00:00:44;28.15;;;18.75;;
28180;SDS011;15464;50.988;10.318;2023-02-05T00:03:10;27.27;;;18.85;;
28180;SDS011;15464;50.988;10.318;2023-02-05T00:05:37;32.00;;;20.17;;
28180;SDS011;15464;50.988;10.318;2023-02-05T00:08:04;31.17;;;19.95;;
28180;SDS011;15464;50.988;10.318;2023-02-05T00:10:31;31.80;;;19.55;;
28180;SDS011;15464;50.988;10.318;2023-02-05T00:12:57;26.70;;;17.80;;
28180;SDS011;15464;50.988;10.318;2023-02-05T00:15:24;27.83;;;18.75;;
28180;SDS011;15464;50.988;10.318;2023-02-05T00:17:51;24.25;;;15.77;;
28180;SDS011;15464;50.988;10.318;2023-02-05T00:20:17;23.17;;;15.15;;
28180;SDS011;15464;50.988;10.318;2023-02-05T00:22:44;22.48;;;13.10;;
28180;SDS011;15464;50.988;10.318;2023-02-05T00:25:11;26.88;;;16.10;;
28180;SDS011;15464;50.988;10.318;2023-02-05T00:27:37;23.60;;;15.43;;
28180;SDS011;15464;50.988;10.318;2023-02-05T00:30:04;20.80;;;13.23;;
28180;SDS011;15464;50.988;10.318;2023-02-05T00:32:31;19.77;;;14.07;;
28180;SDS011;15464;50.988;10.318;2023-02-05T00:34:58;19.50;;;13.75;;
28180;SDS011;15464;50.988;10.318;2023-02-05T00:37:25;20.75;;;13.57;;
28180;SDS011;15464;50.988;10.318;2023-02-05T00:39:51;17.65;;;12.05;;
28180;SDS011;15464;50.988;10.318;2023-02-05T00:42:18;21.42;;;12.95;;
28180;SDS011;15464;50.988;10.318;2023-02-05T00:44:45;19.95;;;13.05;;
28180;SDS011;15464;50.988;10.318;2023-02-05T00:47:12;22.40;;;13.88;;
28180;SDS011;15464;50.988;10.318;2023-02-05T00:49:38;22.88;;;14.70;;
28180;SDS011;15464;50.988;10.318;2023-02-05T00:52:05;20.35;;;13.48;;
28180;SDS011;15464;50.988;10.318;2023-02-05T00:54:31;20.90;;;13.13;;
28180;SDS011;15464;50.988;10.318;2023-02-05T00:56:58;18.33;;;12.48;;
28180;SDS011;15464;50.988;10.318;2023-02-05T00:59:25;18.85;;;13.68;;
28180;SDS011;15464;50.988;10.318;2023-02-05T01:01:52;19.38;;;12.43;;
28180;SDS011;15464;50.988;10.318;2023-02-05T01:04:18;21.45;;;14.38;;
28180;SDS011;15464;50.988;10.318;2023-02-05T01:06:45;25.20;;;16.27;;
28180;SDS011;15464;50.988;10.318;2023-02-05T01:09:11;26.48;;;16.23;;
28180;SDS011;15464;50.988;10.318;2023-02-05T01:11:38;23.02;;;14.93;;
28180;SDS011;15464;50.988;10.318;2023-02-05T01:14:05;22.08;;;13.25;;
28180;SDS011;15464;50.988;10.318;2023-02-05T01:16:31;25.20;;;16.05;;
28180;SDS011;15464;50.988;10.318;2023-02-05T01:18:58;24.27;;;15.93;;
28180;SDS011;15464;50.988;10.318;2023-02-05T01:21:25;23.08;;;15.77;;
28180;SDS011;15464;50.988;10.318;2023-02-05T01:23:51;22.92;;;14.65;;
28180;SDS011;15464;50.988;10.318;2023-02-05T01:26:19;23.38;;;15.05;;
28180;SDS011;15464;50.988;10.318;2023-02-05T01:28:46;27.42;;;15.73;;
28180;SDS011;15464;50.988;10.318;2023-02-05T01:31:13;19.83;;;13.75;;
28180;SDS011;15464;50.988;10.318;2023-02-05T01:33:41;21.05;;;14.77;;
28180;SDS011;15464;50.988;10.318;2023-02-05T01:36:08;28.90;;;19.13;;
28180;SDS011;15464;50.988;10.318;2023-02-05T01:38:35;32.55;;;21.70;;
28180;SDS011;15464;50.988;10.318;2023-02-05T01:41:01;25.58;;;17.83;;
28180;SDS011;15464;50.988;10.318;2023-02-05T01:43:28;31.80;;;19.70;;
28180;SDS011;15464;50.988;10.318;2023-02-05T01:48:43;27.08;;;17.60;;
28180;SDS011;15464;50.988;10.318;2023-02-05T01:51:13;33.28;;;20.77;;
28180;SDS011;15464;50.988;10.318;2023-02-05T01:53:41;27.80;;;18.20;;
28180;SDS011;15464;50.988;10.318;2023-02-05T01:56:12;34.60;;;20.92;;
28180;SDS011;15464;50.988;10.318;2023-02-05T01:59:25;35.47;;;20.27;;
28180;SDS011;15464;50.988;10.318;2023-02-05T02:01:35;36.97;;;20.02;;
28180;SDS011;15464;50.988;10.318;2023-02-05T02:04:03;31.10;;;18.73;;
28180;SDS011;15464;50.988;10.318;2023-02-05T02:06:31;32.22;;;20.23;;
28180;SDS011;15464;50.988;10.318;2023-02-05T02:09:00;29.80;;;18.58;;
28180;SDS011;15464;50.988;10.318;2023-02-05T02:11:28;33.75;;;18.83;;
28180;SDS011;15464;50.988;10.318;2023-02-05T02:13:58;29.42;;;18.38;;
28180;SDS011;15464;50.988;10.318;2023-02-05T02:16:32;26.88;;;17.20;;
28180;SDS011;15464;50.988;10.318;2023-02-05T02:19:01;26.95;;;16.88;;
28180;SDS011;15464;50.988;10.318;2023-02-05T02:21:37;29.00;;;17.88;;
28180;SDS011;15464;50.988;10.318;2023-02-05T02:29:33;25.05;;;15.30;;
28180;SDS011;15464;50.988;10.318;2023-02-05T02:32:20;22.42;;;15.77;;
28180;SDS011;15464;50.988;10.318;2023-02-05T02:34:59;27.60;;;18.63;;
28180;SDS011;15464;50.988;10.318;2023-02-05T02:37:32;27.63;;;16.55;;
28180;SDS011;15464;50.988;10.318;2023-02-05T02:40:20;26.23;;;17.17;;
28180;SDS011;15464;50.988;10.318;2023-02-05T02:42:56;24.80;;;16.52;;
28180;SDS011;15464;50.988;10.318;2023-02-05T02:45:30;21.35;;;14.50;;
28180;SDS011;15464;50.988;10.318;2023-02-05T02:48:01;19.27;;;14.07;;
28180;SDS011;15464;50.988;10.318;2023-02-05T02:50:35;21.13;;;14.35;;
28180;SDS011;15464;50.988;10.318;2023-02-05T02:55:44;21.25;;;13.80;;
28180;SDS011;15464;50.988;10.318;2023-02-05T02:58:15;23.38;;;13.80;;
28180;SDS011;15464;50.988;10.318;2023-02-05T03:00:47;21.55;;;14.30;;
28180;SDS011;15464;50.988;10.318;2023-02-05T03:03:14;23.50;;;15.25;;
28180;SDS011;15464;50.988;10.318;2023-02-05T03:05:45;21.05;;;14.15;;
28180;SDS011;15464;50.988;10.318;2023-02-05T03:08:19;23.40;;;15.65;;
28180;SDS011;15464;50.988;10.318;2023-02-05T03:11:10;24.02;;;15.88;;
28180;SDS011;15464;50.988;10.318;2023-02-05T03:13:39;24.42;;;15.35;;
28180;SDS011;15464;50.988;10.318;2023-02-05T03:16:08;22.35;;;15.95;;
28180;SDS011;15464;50.988;10.318;2023-02-05T03:18:35;20.02;;;13.80;;
28180;SDS011;15464;50.988;10.318;2023-02-05T03:21:04;23.40;;;14.98;;
28180;SDS011;15464;50.988;10.318;2023-02-05T03:23:37;20.27;;;13.95;;
28180;SDS011;15464;50.988;10.318;2023-02-05T03:26:17;21.88;;;13.90;;
28180;SDS011;15464;50.988;10.318;2023-02-05T03:28:51;18.90;;;13.70;;
28180;SDS011;15464;50.988;10.318;2023-02-05T03:31:20;22.40;;;12.85;;
28180;SDS011;15464;50.988;10.318;2023-02-05T03:36:39;19.40;;;12.55;;
28180;SDS011;15464;50.988;10.318;2023-02-05T03:50:31;19.88;;;12.95;;
28180;SDS011;15464;50.988;10.318;2023-02-05T03:53:16;17.02;;;12.00;;
28180;SDS011;15464;50.988;10.318;2023-02-05T03:55:50;18.35;;;12.88;;
28180;SDS011;15464;50.988;10.318;2023-02-05T03:58:29;20.38;;;12.90;;
28180;SDS011;15464;50.988;10.318;2023-02-05T04:01:03;21.50;;;12.90;;
28180;SDS011;15464;50.988;10.318;2023-02-05T04:03:32;17.97;;;12.63;;
28180;SDS011;15464;50.988;10.318;2023-02-05T04:05:58;13.98;;;9.70;;
28180;SDS011;15464;50.988;10.318;2023-02-05T04:08:25;15.55;;;10.32;;
28180;SDS011;15464;50.988;10.318;2023-02-05T04:10:52;16.50;;;11.23;;
28180;SDS011;15464;50.988;10.318;2023-02-05T04:13:18;13.02;;;10.02;;
28180;SDS011;15464;50.988;10.318;2023-02-05T04:15:47;15.80;;;10.50;;
28180;SDS011;15464;50.988;10.318;2023-02-05T04:18:14;16.02;;;10.82;;
28180;SDS011;15464;50.988;10.318;2023-02-05T04:20:41;17.17;;;11.77;;
28180;SDS011;15464;50.988;10.318;2023-02-05T04:23:08;19.40;;;12.93;;
28180;SDS011;15464;50.988;10.318;2023-02-05T04:25:35;18.60;;;13.00;;
28180;SDS011;15464;50.988;10.318;2023-02-05T04:28:03;17.63;;;12.80;;
28180;SDS011;15464;50.988;10.318;2023-02-05T04:30:31;20.55;;;13.27;;
28180;SDS011;15464;50.988;10.318;2023-02-05T04:32:58;20.60;;;13.45;;
28180;SDS011;15464;50.988;10.318;2023-02-05T04:35:25;24.77;;;15.23;;
28180;SDS011;15464;50.988;10.318;2023-02-05T04:37:51;26.42;;;14.73;;
28180;SDS011;15464;50.988;10.318;2023-02-05T04:40:18;19.13;;;12.98;;
28180;SDS011;15464;50.988;10.318;2023-02-05T04:42:45;22.13;;;14.40;;
28180;SDS011;15464;50.988;10.318;2023-02-05T04:45:11;21.38;;;12.85;;
28180;SDS011;15464;50.988;10.318;2023-02-05T04:47:38;17.90;;;11.68;;
28180;SDS011;15464;50.988;10.318;2023-02-05T04:50:05;19.20;;;12.77;;
28180;SDS011;15464;50.988;10.318;2023-02-05T04:52:32;21.00;;;13.07;;
28180;SDS011;15464;50.988;10.318;2023-02-05T04:54:58;20.35;;;13.50;;
28180;SDS011;15464;50.988;10.318;2023-02-05T04:57:25;20.00;;;12.85;;
28180;SDS011;15464;50.988;10.318;2023-02-05T04:59:51;19.42;;;12.93;;
28180;SDS011;15464;50.988;10.318;2023-02-05T05:02:18;21.88;;;13.88;;
28180;SDS011;15464;50.988;10.318;2023-02-05T05:04:45;21.42;;;14.88;;
28180;SDS011;15464;50.988;10.318;2023-02-05T05:07:11;19.40;;;13.20;;
28180;SDS011;15464;50.988;10.318;2023-02-05T05:09:38;22.52;;;14.68;;
28180;SDS011;15464;50.988;10.318;2023-02-05T05:12:05;21.02;;;14.60;;
28180;SDS011;15464;50.988;10.318;2023-02-05T05:14:32;18.27;;;12.68;;
28180;SDS011;15464;50.988;10.318;2023-02-05T05:16:58;21.75;;;14.00;;
28180;SDS011;15464;50.988;10.318;2023-02-05T05:19:25;19.83;;;12.40;;
28180;SDS011;15464;50.988;10.318;2023-02-05T05:21:52;20.75;;;13.52;;
28180;SDS011;15464;50.988;10.318;2023-02-05T05:24:18;19.52;;;13.27;;
28180;SDS011;15464;50.988;10.318;2023-02-05T05:26:45;17.17;;;11.60;;
28180;SDS011;15464;50.988;10.318;2023-02-05T05:29:12;20.50;;;11.63;;
28180;SDS011;15464;50.988;10.318;2023-02-05T05:31:39;18.35;;;11.93;;
28180;SDS011;15464;50.988;10.318;2023-02-05T05:34:06;18.20;;;13.52;;
28180;SDS011;15464;50.988;10.318;2023-02-05T05:36:33;19.90;;;12.95;;
28180;SDS011;15464;50.988;10.318;2023-02-05T05:39:00;21.27;;;13.27;;
28180;SDS011;15464;50.988;10.318;2023-02-05T05:41:46;19.38;;;13.50;;
28180;SDS011;15464;50.988;10.318;2023-02-05T05:44:31;18.38;;;11.93;;
28180;SDS011;15464;50.988;10.318;2023-02-05T05:46:58;18.95;;;12.48;;
28180;SDS011;15464;50.988;10.318;2023-02-05T05:49:25;18.58;;;13.20;;
28180;SDS011;15464;50.988;10.318;2023-02-05T05:51:51;16.83;;;11.93;;
28180;SDS011;15464;50.988;10.318;2023-02-05T05:54:18;20.13;;;13.30;;
28180;SDS011;15464;50.988;10.318;2023-02-05T05:56:45;18.67;;;13.10;;
28180;SDS011;15464;50.988;10.318;2023-02-05T05:59:12;16.55;;;10.95;;
28180;SDS011;15464;50.988;10.318;2023-02-05T06:01:38;17.38;;;12.13;;
28180;SDS011;15464;50.988;10.318;2023-02-05T06:04:05;18.65;;;12.00;;
28180;SDS011;15464;50.988;10.318;2023-02-05T06:06:32;17.30;;;11.13;;
28180;SDS011;15464;50.988;10.318;2023-02-05T06:08:59;17.30;;;11.70;;
28180;SDS011;15464;50.988;10.318;2023-02-05T06:11:25;17.08;;;12.15;;
28180;SDS011;15464;50.988;10.318;2023-02-05T06:13:52;17.42;;;12.07;;
28180;SDS011;15464;50.988;10.318;2023-02-05T06:16:19;19.45;;;12.02;;
28180;SDS011;15464;50.988;10.318;2023-02-05T06:18:46;15.75;;;11.07;;
28180;SDS011;15464;50.988;10.318;2023-02-05T06:21:12;16.60;;;11.07;;
28180;SDS011;15464;50.988;10.318;2023-02-05T06:23:39;12.43;;;9.48;;
28180;SDS011;15464;50.988;10.318;2023-02-05T06:26:06;13.90;;;10.05;;
28180;SDS011;15464;50.988;10.318;2023-02-05T06:28:33;15.20;;;10.68;;
28180;SDS011;15464;50.988;10.318;2023-02-05T06:30:59;12.30;;;9.35;;
28180;SDS011;15464;50.988;10.318;2023-02-05T06:33:26;16.23;;;10.27;;
28180;SDS011;15464;50.988;10.318;2023-02-05T06:35:53;15.75;;;10.35;;
28180;SDS011;15464;50.988;10.318;2023-02-05T06:38:19;14.88;;;10.63;;
28180;SDS011;15464;50.988;10.318;2023-02-05T06:40:46;14.38;;;9.15;;
28180;SDS011;15464;50.988;10.318;2023-02-05T06:43:13;16.88;;;9.77;;
28180;SDS011;15464;50.988;10.318;2023-02-05T06:45:40;11.35;;;9.30;;
28180;SDS011;15464;50.988;10.318;2023-02-05T06:48:07;14.43;;;8.02;;
28180;SDS011;15464;50.988;10.318;2023-02-05T06:50:33;11.27;;;8.50;;
28180;SDS011;15464;50.988;10.318;2023-02-05T06:53:00;13.43;;;8.95;;
28180;SDS011;15464;50.988;10.318;2023-02-05T06:55:27;13.68;;;9.00;;
28180;SDS011;15464;50.988;10.318;2023-02-05T06:57:53;14.68;;;10.05;;
28180;SDS011;15464;50.988;10.318;2023-02-05T07:00:20;13.77;;;9.77;;
28180;SDS011;15464;50.988;10.318;2023-02-05T07:02:47;11.82;;;8.65;;
28180;SDS011;15464;50.988;10.318;2023-02-05T07:05:13;13.07;;;9.40;;
28180;SDS011;15464;50.988;10.318;2023-02-05T07:07:40;13.20;;;9.60;;
28180;SDS011;15464;50.988;10.318;2023-02-05T07:10:07;13.70;;;9.95;;
28180;SDS011;15464;50.988;10.318;2023-02-05T07:12:34;12.20;;;9.18;;
28180;SDS011;15464;50.988;10.318;2023-02-05T07:15:00;13.52;;;9.98;;
28180;SDS011;15464;50.988;10.318;2023-02-05T07:17:27;15.30;;;10.88;;
28180;SDS011;15464;50.988;10.318;2023-02-05T07:19:54;14.07;;;10.55;;
28180;SDS011;15464;50.988;10.318;2023-02-05T07:22:20;13.00;;;10.00;;
28180;SDS011;15464;50.988;10.318;2023-02-05T07:24:47;14.45;;;10.20;;
28180;SDS011;15464;50.988;10.318;2023-02-05T07:27:14;29.02;;;19.15;;
28180;SDS011;15464;50.988;10.318;2023-02-05T07:29:40;36.65;;;21.23;;
28180;SDS011;15464;50.988;10.318;2023-02-05T07:32:07;43.40;;;26.23;;
28180;SDS011;15464;50.988;10.318;2023-02-05T07:34:34;47.58;;;27.80;;
28180;SDS011;15464;50.988;10.318;2023-02-05T07:37:01;44.22;;;26.65;;
28180;SDS011;15464;50.988;10.318;2023-02-05T07:39:27;34.47;;;20.33;;
28180;SDS011;15464;50.988;10.318;2023-02-05T07:41:54;19.52;;;12.77;;
28180;SDS011;15464;50.988;10.318;2023-02-05T07:44:21;25.38;;;14.00;;
28180;SDS011;15464;50.988;10.318;2023-02-05T07:46:47;21.15;;;12.68;;
28180;SDS011;15464;50.988;10.318;2023-02-05T07:49:14;19.58;;;11.73;;
28180;SDS011;15464;50.988;10.318;2023-02-05T07:51:41;32.22;;;19.50;;
28180;SDS011;15464;50.988;10.318;2023-02-05T07:54:08;38.47;;;23.30;;
28180;SDS011;15464;50.988;10.318;2023-02-05T07:56:36;39.35;;;24.73;;
28180;SDS011;15464;50.988;10.318;2023-02-05T07:59:02;38.33;;;23.52;;
28180;SDS011;15464;50.988;10.318;2023-02-05T08:01:29;39.10;;;25.15;;
28180;SDS011;15464;50.988;10.318;2023-02-05T08:03:57;34.53;;;22.75;;
28180;SDS011;15464;50.988;10.318;2023-02-05T08:06:23;26.35;;;17.70;;
28180;SDS011;15464;50.988;10.318;2023-02-05T08:08:51;30.08;;;18.75;;
28180;SDS011;15464;50.988;10.318;2023-02-05T08:11:17;27.77;;;19.38;;
28180;SDS011;15464;50.988;10.318;2023-02-05T08:13:44;23.45;;;17.83;;
28180;SDS011;15464;50.988;10.318;2023-02-05T08:16:11;25.33;;;18.58;;
28180;SDS011;15464;50.988;10.318;2023-02-05T08:18:41;42.67;;;31.15;;
28180;SDS011;15464;50.988;10.318;2023-02-05T08:21:08;42.47;;;28.42;;
28180;SDS011;15464;50.988;10.318;2023-02-05T08:23:35;42.08;;;28.05;;
28180;SDS011;15464;50.988;10.318;2023-02-05T08:26:02;30.83;;;21.17;;
28180;SDS011;15464;50.988;10.318;2023-02-05T08:28:29;22.88;;;16.80;;
28180;SDS011;15464;50.988;10.318;2023-02-05T08:30:55;497.38;;;46.75;;
28180;SDS011;15464;50.988;10.318;2023-02-05T08:33:22;25.10;;;15.00;;
28180;SDS011;15464;50.988;10.318;2023-02-05T08:35:49;23.40;;;16.33;;
28180;SDS011;15464;50.988;10.318;2023-02-05T08:38:16;23.02;;;17.60;;
28180;SDS011;15464;50.988;10.318;2023-02-05T08:40:43;28.77;;;20.13;;
28180;SDS011;15464;50.988;10.318;2023-02-05T08:43:09;27.30;;;19.02;;
28180;SDS011;15464;50.988;10.318;2023-02-05T08:45:36;20.85;;;14.75;;
28180;SDS011;15464;50.988;10.318;2023-02-05T08:48:03;19.92;;;14.57;;
28180;SDS011;15464;50.988;10.318;2023-02-05T08:50:30;20.42;;;14.43;;
28180;SDS011;15464;50.988;10.318;2023-02-05T08:52:57;22.42;;;14.38;;
28180;SDS011;15464;50.988;10.318;2023-02-05T08:55:23;19.98;;;14.43;;
28180;SDS011;15464;50.988;10.318;2023-02-05T08:57:50;25.63;;;15.98;;
28180;SDS011;15464;50.988;10.318;2023-02-05T09:00:17;25.63;;;15.90;;
28180;SDS011;15464;50.988;10.318;2023-02-05T09:02:44;19.48;;;13.63;;
28180;SDS011;15464;50.988;10.318;2023-02-05T09:05:11;19.30;;;13.90;;
28180;SDS011;15464;50.988;10.318;2023-02-05T09:07:38;17.75;;;13.25;;
28180;SDS011;15464;50.988;10.318;2023-02-05T09:10:07;17.98;;;12.80;;
28180;SDS011;15464;50.988;10.318;2023-02-05T09:15:02;18.65;;;14.15;;
28180;SDS011;15464;50.988;10.318;2023-02-05T09:17:29;23.50;;;16.17;;
28180;SDS011;15464;50.988;10.318;2023-02-05T09:19:55;24.23;;;16.92;;
28180;SDS011;15464;50.988;10.318;2023-02-05T09:22:22;19.83;;;14.15;;
28180;SDS011;15464;50.988;10.318;2023-02-05T09:24:49;18.70;;;13.75;;
28180;SDS011;15464;50.988;10.318;2023-02-05T09:27:15;17.83;;;12.98;;
28180;SDS011;15464;50.988;10.318;2023-02-05T09:29:42;15.43;;;12.48;;
28180;SDS011;15464;50.988;10.318;2023-02-05T09:32:09;17.70;;;13.82;;
28180;SDS011;15464;50.988;10.318;2023-02-05T09:34:35;14.52;;;11.55;;
28180;SDS011;15464;50.988;10.318;2023-02-05T09:37:02;16.63;;;12.18;;
28180;SDS011;15464;50.988;10.318;2023-02-05T09:39:29;20.20;;;13.13;;
28180;SDS011;15464;50.988;10.318;2023-02-05T09:42:26;18.25;;;14.77;;
28180;SDS011;15464;50.988;10.318;2023-02-05T09:45:31;20.15;;;15.75;;
28180;SDS011;15464;50.988;10.318;2023-02-05T09:50:49;16.95;;;14.07;;
28180;SDS011;15464;50.988;10.318;2023-02-05T09:53:17;18.67;;;14.35;;
28180;SDS011;15464;50.988;10.318;2023-02-05T09:55:47;15.55;;;13.38;;
28180;SDS011;15464;50.988;10.318;2023-02-05T09:58:22;17.27;;;14.77;;
28180;SDS011;15464;50.988;10.318;2023-02-05T10:00:58;19.58;;;14.90;;
28180;SDS011;15464;50.988;10.318;2023-02-05T10:03:52;20.98;;;16.15;;
28180;SDS011;15464;50.988;10.318;2023-02-05T10:11:53;19.58;;;15.32;;
28180;SDS011;15464;50.988;10.318;2023-02-05T10:14:34;21.60;;;16.83;;
28180;SDS011;15464;50.988;10.318;2023-02-05T10:20:19;19.98;;;14.73;;
28180;SDS011;15464;50.988;10.318;2023-02-05T10:26:12;21.17;;;15.60;;
28180;SDS011;15464;50.988;10.318;2023-02-05T10:34:33;23.70;;;19.23;;
28180;SDS011;15464;50.988;10.318;2023-02-05T10:37:28;29.17;;;22.42;;
28180;SDS011;15464;50.988;10.318;2023-02-05T10:40:01;32.10;;;21.63;;
28180;SDS011;15464;50.988;10.318;2023-02-05T10:42:38;27.13;;;20.20;;
28180;SDS011;15464;50.988;10.318;2023-02-05T10:47:39;25.35;;;20.27;;
28180;SDS011;15464;50.988;10.318;2023-02-05T10:50:28;24.40;;;19.00;;
28180;SDS011;15464;50.988;10.318;2023-02-05T10:53:07;28.63;;;20.88;;
28180;SDS011;15464;50.988;10.318;2023-02-05T10:55:33;27.33;;;20.00;;
28180;SDS011;15464;50.988;10.318;2023-02-05T10:58:08;26.98;;;18.67;;
28180;SDS011;15464;50.988;10.318;2023-02-05T11:00:45;29.55;;;19.17;;
28180;SDS011;15464;50.988;10.318;2023-02-05T11:03:14;23.88;;;16.73;;
28180;SDS011;15464;50.988;10.318;2023-02-05T11:05:43;23.08;;;17.05;;
28180;SDS011;15464;50.988;10.318;2023-02-05T11:10:57;20.90;;;15.23;;
28180;SDS011;15464;50.988;10.318;2023-02-05T11:13:24;19.70;;;14.80;;
28180;SDS011;15464;50.988;10.318;2023-02-05T11:15:54;18.27;;;14.50;;
28180;SDS011;15464;50.988;10.318;2023-02-05T11:18:22;18.73;;;15.23;;
28180;SDS011;15464;50.988;10.318;2023-02-05T11:21:00;19.15;;;15.07;;
28180;SDS011;15464;50.988;10.318;2023-02-05T11:23:28;19.13;;;15.43;;
28180;SDS011;15464;50.988;10.318;2023-02-05T11:25:58;20.55;;;15.52;;
28180;SDS011;15464;50.988;10.318;2023-02-05T11:30:57;20.45;;;15.73;;
28180;SDS011;15464;50.988;10.318;2023-02-05T11:33:46;22.08;;;17.15;;
28180;SDS011;15464;50.988;10.318;2023-02-05T11:36:23;20.25;;;16.77;;
28180;SDS011;15464;50.988;10.318;2023-02-05T11:38:51;19.42;;;15.05;;
28180;SDS011;15464;50.988;10.318;2023-02-05T11:41:26;18.13;;;14.70;;
28180;SDS011;15464;50.988;10.318;2023-02-05T11:43:53;19.83;;;14.95;;
28180;SDS011;15464;50.988;10.318;2023-02-05T11:46:22;16.42;;;13.45;;
28180;SDS011;15464;50.988;10.318;2023-02-05T11:48:55;17.67;;;14.35;;
28180;SDS011;15464;50.988;10.318;2023-02-05T11:53:55;16.90;;;13.75;;
28180;SDS011;15464;50.988;10.318;2023-02-05T11:56:24;15.02;;;12.18;;
28180;SDS011;15464;50.988;10.318;2023-02-05T11:59:02;13.50;;;12.07;;
28180;SDS011;15464;50.988;10.318;2023-02-05T12:01:46;15.52;;;12.63;;
28180;SDS011;15464;50.988;10.318;2023-02-05T12:04:15;18.27;;;13.40;;
28180;SDS011;15464;50.988;10.318;2023-02-05T12:06:57;15.50;;;12.10;;
28180;SDS011;15464;50.988;10.318;2023-02-05T12:09:33;14.50;;;11.25;;
28180;SDS011;15464;50.988;10.318;2023-02-05T12:14:58;15.38;;;11.63;;
28180;SDS011;15464;50.988;10.318;2023-02-05T12:20:50;14.45;;;11.18;;
28180;SDS011;15464;50.988;10.318;2023-02-05T12:23:36;16.92;;;13.23;;
28180;SDS011;15464;50.988;10.318;2023-02-05T12:26:36;15.93;;;13.50;;
28180;SDS011;15464;50.988;10.318;2023-02-05T12:29:25;16.27;;;13.38;;
28180;SDS011;15464;50.988;10.318;2023-02-05T12:32:42;15.30;;;13.25;;
28180;SDS011;15464;50.988;10.318;2023-02-05T12:40:29;15.10;;;12.25;;
28180;SDS011;15464;50.988;10.318;2023-02-05T12:46:15;15.57;;;13.02;;
28180;SDS011;15464;50.988;10.318;2023-02-05T12:48:53;18.73;;;14.63;;
28180;SDS011;15464;50.988;10.318;2023-02-05T12:57:28;12.15;;;10.15;;
28180;SDS011;15464;50.988;10.318;2023-02-05T13:00:21;18.33;;;11.68;;
28180;SDS011;15464;50.988;10.318;2023-02-05T13:06:20;17.60;;;13.40;;
28180;SDS011;15464;50.988;10.318;2023-02-05T13:08:54;15.68;;;11.88;;
28180;SDS011;15464;50.988;10.318;2023-02-05T13:14:05;19.93;;;17.80;;
28180;SDS011;15464;50.988;10.318;2023-02-05T13:16:40;19.40;;;17.02;;
28180;SDS011;15464;50.988;10.318;2023-02-05T13:19:29;17.98;;;15.27;;
28180;SDS011;15464;50.988;10.318;2023-02-05T13:22:03;18.23;;;15.55;;
28180;SDS011;15464;50.988;10.318;2023-02-05T13:24:57;20.52;;;14.70;;
28180;SDS011;15464;50.988;10.318;2023-02-05T13:27:59;17.45;;;14.75;;
28180;SDS011;15464;50.988;10.318;2023-02-05T13:30:57;19.17;;;15.18;;
28180;SDS011;15464;50.988;10.318;2023-02-05T13:33:28;20.85;;;14.07;;
28180;SDS011;15464;50.988;10.318;2023-02-05T13:36:20;16.73;;;14.57;;
28180;SDS011;15464;50.988;10.318;2023-02-05T13:42:00;17.73;;;13.48;;
28180;SDS011;15464;50.988;10.318;2023-02-05T13:45:03;21.55;;;17.17;;
28180;SDS011;15464;50.988;10.318;2023-02-05T13:47:40;17.83;;;14.38;;
28180;SDS011;15464;50.988;10.318;2023-02-05T13:58:27;15.88;;;11.80;;
28180;SDS011;15464;50.988;10.318;2023-02-05T14:01:22;17.90;;;14.80;;
28180;SDS011;15464;50.988;10.318;2023-02-05T14:06:28;19.88;;;15.75;;
28180;SDS011;15464;50.988;10.318;2023-02-05T14:08:58;19.27;;;16.70;;
28180;SDS011;15464;50.988;10.318;2023-02-05T14:11:55;19.50;;;16.10;;
28180;SDS011;15464;50.988;10.318;2023-02-05T14:14:24;20.17;;;18.00;;
28180;SDS011;15464;50.988;10.318;2023-02-05T14:16:52;23.10;;;17.40;;
28180;SDS011;15464;50.988;10.318;2023-02-05T14:19:22;21.10;;;17.45;;
28180;SDS011;15464;50.988;10.318;2023-02-05T14:24:26;23.52;;;18.10;;
28180;SDS011;15464;50.988;10.318;2023-02-05T14:29:56;24.02;;;18.75;;
28180;SDS011;15464;50.988;10.318;2023-02-05T14:37:59;21.50;;;17.25;;
28180;SDS011;15464;50.988;10.318;2023-02-05T14:40:31;20.30;;;17.48;;
28180;SDS011;15464;50.988;10.318;2023-02-05T14:43:16;20.65;;;17.42;;
28180;SDS011;15464;50.988;10.318;2023-02-05T14:45:52;21.98;;;18.17;;
28180;SDS011;15464;50.988;10.318;2023-02-05T14:48:21;23.98;;;18.45;;
28180;SDS011;15464;50.988;10.318;2023-02-05T14:51:02;18.85;;;15.55;;
28180;SDS011;15464;50.988;10.318;2023-02-05T14:53:39;23.90;;;19.40;;
28180;SDS011;15464;50.988;10.318;2023-02-05T14:56:25;27.30;;;21.23;;
28180;SDS011;15464;50.988;10.318;2023-02-05T14:59:03;24.73;;;20.00;;
28180;SDS011;15464;50.988;10.318;2023-02-05T15:01:44;21.17;;;17.80;;
28180;SDS011;15464;50.988;10.318;2023-02-05T15:04:26;25.05;;;20.00;;
28180;SDS011;15464;50.988;10.318;2023-02-05T15:06:57;23.13;;;19.65;;
28180;SDS011;15464;50.988;10.318;2023-02-05T15:09:36;26.30;;;20.63;;
28180;SDS011;15464;50.988;10.318;2023-02-05T15:12:16;23.40;;;18.48;;
28180;SDS011;15464;50.988;10.318;2023-02-05T15:14:51;30.85;;;22.67;;
28180;SDS011;15464;50.988;10.318;2023-02-05T15:20:11;22.67;;;19.00;;
28180;SDS011;15464;50.988;10.318;2023-02-05T15:22:48;24.08;;;18.77;;
28180;SDS011;15464;50.988;10.318;2023-02-05T15:28:15;24.10;;;19.30;;
28180;SDS011;15464;50.988;10.318;2023-02-05T15:30:50;32.38;;;25.23;;
28180;SDS011;15464;50.988;10.318;2023-02-05T15:33:26;28.40;;;22.17;;
28180;SDS011;15464;50.988;10.318;2023-02-05T15:36:18;27.35;;;21.70;;
28180;SDS011;15464;50.988;10.318;2023-02-05T15:38:51;26.20;;;21.25;;
28180;SDS011;15464;50.988;10.318;2023-02-05T15:41:28;38.90;;;30.77;;
28180;SDS011;15464;50.988;10.318;2023-02-05T15:43:59;32.58;;;25.10;;
28180;SDS011;15464;50.988;10.318;2023-02-05T15:46:28;29.80;;;23.63;;
28180;SDS011;15464;50.988;10.318;2023-02-05T15:48:57;30.27;;;24.88;;
28180;SDS011;15464;50.988;10.318;2023-02-05T15:54:00;27.42;;;23.58;;
28180;SDS011;15464;50.988;10.318;2023-02-05T15:56:38;28.95;;;22.88;;
28180;SDS011;15464;50.988;10.318;2023-02-05T15:59:11;31.88;;;23.92;;
28180;SDS011;15464;50.988;10.318;2023-02-05T16:01:43;29.73;;;22.08;;
28180;SDS011;15464;50.988;10.318;2023-02-05T16:04:30;24.33;;;19.88;;
28180;SDS011;15464;50.988;10.318;2023-02-05T16:06:59;26.05;;;20.92;;
28180;SDS011;15464;50.988;10.318;2023-02-05T16:09:27;25.08;;;21.35;;
28180;SDS011;15464;50.988;10.318;2023-02-05T16:11:55;29.48;;;24.27;;
28180;SDS011;15464;50.988;10.318;2023-02-05T16:14:23;34.97;;;26.67;;
28180;SDS011;15464;50.988;10.318;2023-02-05T16:22:03;34.17;;;27.65;;
28180;SDS011;15464;50.988;10.318;2023-02-05T16:24:42;34.33;;;28.00;;
28180;SDS011;15464;50.988;10.318;2023-02-05T16:27:14;39.97;;;30.00;;
28180;SDS011;15464;50.988;10.318;2023-02-05T16:29:51;34.20;;;27.90;;
28180;SDS011;15464;50.988;10.318;2023-02-05T16:34:57;43.58;;;33.00;;
28180;SDS011;15464;50.988;10.318;2023-02-05T16:37:28;43.35;;;32.28;;